Time;durP1;ratioP1;P1;durP2;ratioP2;P2;SDS_P1;SDS_P2;PMS_P1;PMS_P2;Temp;Humidity;BMP_temperature;BMP_pressure;BME280_temperature;BME280_humidity;BME280_pressure;Samples;Min_cycle;Max_cycle;Signal;HPM_P1;HPM_P2
2024/03/08 00:02:00;;;;;;;42.58;18.65;;;2.00;99.90;;;;;;4971781;28;20035;-75
2024/03/08 00:04:25;;;;;;;42.65;19.10;;;1.90;99.90;;;;;;4970441;28;20053;-75
2024/03/08 00:06:51;;;;;;;40.58;19.58;;;1.90;99.90;;;;;;4985034;28;20066;-75
2024/03/08 00:09:16;;;;;;;35.55;19.13;;;1.90;99.90;;;;;;4968222;28;20438;-75
2024/03/08 00:11:42;;;;;;;38.28;19.77;;;1.80;99.90;;;;;;4953733;28;20031;-75
2024/03/08 00:14:07;;;;;;;38.45;18.65;;;1.80;99.90;;;;;;4952858;29;20530;-75
2024/03/08 00:16:35;;;;;;;35.58;17.30;;;1.70;99.90;;;;;;4952560;29;20038;-75
2024/03/08 00:19:00;;;;;;;35.60;19.23;;;1.70;99.90;;;;;;4952249;29;20103;-75
2024/03/08 00:21:26;;;;;;;33.25;17.23;;;1.70;99.90;;;;;;4951517;29;20046;-75
2024/03/08 00:23:54;;;;;;;35.50;18.98;;;1.60;99.90;;;;;;4953370;28;20023;-75
2024/03/08 00:26:21;;;;;;;38.47;19.25;;;1.60;99.90;;;;;;4952079;29;20020;-75
2024/03/08 00:28:48;;;;;;;44.67;20.30;;;1.60;99.90;;;;;;4953281;28;20023;-75
2024/03/08 00:31:15;;;;;;;40.58;19.48;;;1.60;99.90;;;;;;4952955;28;20071;-75
2024/03/08 00:33:41;;;;;;;38.60;18.92;;;1.60;99.90;;;;;;4953556;28;20087;-75
2024/03/08 00:36:07;;;;;;;39.25;18.10;;;1.50;99.90;;;;;;4952349;29;20035;-75
2024/03/08 00:38:34;;;;;;;38.58;18.55;;;1.50;99.90;;;;;;4953415;29;20031;-75
2024/03/08 00:40:59;;;;;;;34.85;18.63;;;1.50;99.90;;;;;;4967914;28;20027;-75
2024/03/08 00:43:25;;;;;;;41.28;18.90;;;1.50;99.90;;;;;;4953129;28;20714;-75
2024/03/08 00:45:51;;;;;;;38.03;18.73;;;1.50;99.90;;;;;;4951840;29;20023;-75
2024/03/08 00:48:16;;;;;;;36.92;18.45;;;1.50;99.90;;;;;;4953402;28;20442;-75
2024/03/08 00:50:45;;;;;;;41.30;19.42;;;1.50;99.90;;;;;;4952577;28;20054;-75
2024/03/08 00:53:11;;;;;;;43.33;19.27;;;1.40;99.90;;;;;;4952955;28;20035;-75
2024/03/08 00:55:37;;;;;;;38.60;19.77;;;1.50;99.90;;;;;;4951723;29;20034;-75
2024/03/08 00:58:03;;;;;;;33.75;17.70;;;1.50;99.90;;;;;;4951450;29;20038;-75
2024/03/08 01:00:29;;;;;;;36.60;17.65;;;1.40;99.90;;;;;;4951191;29;20027;-75
2024/03/08 01:02:55;;;;;;;48.58;18.63;;;1.50;99.90;;;;;;4953076;28;20066;-75
2024/03/08 01:05:21;;;;;;;36.00;18.50;;;1.40;99.90;;;;;;4953161;28;20312;-75
2024/03/08 01:07:47;;;;;;;43.05;20.05;;;1.40;99.90;;;;;;4951519;28;20082;-75
2024/03/08 01:10:12;;;;;;;40.70;19.40;;;1.30;99.90;;;;;;4952492;28;20399;-75
2024/03/08 01:12:39;;;;;;;42.30;21.67;;;1.30;99.90;;;;;;4951259;29;20039;-75
2024/03/08 01:15:05;;;;;;;40.70;19.70;;;1.30;99.90;;;;;;4952684;28;20042;-75
2024/03/08 01:17:31;;;;;;;34.13;17.35;;;1.30;99.90;;;;;;4951354;28;20031;-75
2024/03/08 01:19:56;;;;;;;35.70;18.17;;;1.40;99.90;;;;;;4952138;28;20037;-74
2024/03/08 01:22:22;;;;;;;41.45;20.42;;;1.30;99.90;;;;;;4950596;29;20027;-75
2024/03/08 01:24:48;;;;;;;42.47;19.45;;;1.30;99.90;;;;;;4952531;28;20027;-75
2024/03/08 01:27:14;;;;;;;39.72;19.85;;;1.30;99.90;;;;;;4952313;28;20035;-75
2024/03/08 01:29:40;;;;;;;41.47;18.00;;;1.30;99.90;;;;;;4950702;29;20019;-75
2024/03/08 01:32:06;;;;;;;43.45;20.10;;;1.20;99.90;;;;;;4967142;28;20086;-75
2024/03/08 01:34:32;;;;;;;37.40;18.35;;;1.20;99.90;;;;;;4952369;28;20481;-75
2024/03/08 01:36:59;;;;;;;41.88;20.25;;;1.20;99.90;;;;;;4952273;28;20120;-75
2024/03/08 01:39:25;;;;;;;38.33;18.45;;;1.20;99.90;;;;;;4951879;28;20024;-75
2024/03/08 01:41:50;;;;;;;43.83;20.15;;;1.20;99.90;;;;;;4950615;29;20082;-75
2024/03/08 01:44:17;;;;;;;40.08;18.52;;;1.20;99.90;;;;;;4950725;29;20035;-75
2024/03/08 01:46:47;;;;;;;40.78;19.98;;;1.20;99.90;;;;;;4950944;29;20557;-75
2024/03/08 01:49:13;;;;;;;26.20;14.02;;;1.20;99.90;;;;;;4966800;28;20487;-75
2024/03/08 01:51:41;;;;;;;42.25;20.40;;;1.10;99.90;;;;;;4950469;29;20551;-75
2024/03/08 01:54:09;;;;;;;42.95;20.05;;;1.10;99.90;;;;;;4951533;28;20039;-75
2024/03/08 01:56:37;;;;;;;42.63;21.15;;;1.00;99.90;;;;;;4966672;28;20019;-75
2024/03/08 01:59:03;;;;;;;46.05;20.92;;;1.00;99.90;;;;;;4950999;28;20020;-75
2024/03/08 02:01:29;;;;;;;37.83;19.58;;;0.90;99.90;;;;;;4951070;29;20026;-75
2024/03/08 02:03:54;;;;;;;42.03;20.23;;;0.90;99.90;;;;;;4950610;29;20440;-75
2024/03/08 02:06:20;;;;;;;40.42;20.23;;;0.90;99.90;;;;;;4952094;28;20095;-75
2024/03/08 02:08:46;;;;;;;40.28;19.02;;;0.90;99.90;;;;;;4951797;28;20117;-75
2024/03/08 02:11:12;;;;;;;43.88;19.75;;;0.90;99.90;;;;;;4949883;29;20166;-75
2024/03/08 02:13:38;;;;;;;38.40;18.35;;;0.90;99.90;;;;;;4950527;29;20034;-75
2024/03/08 02:16:04;;;;;;;44.83;19.85;;;0.90;99.90;;;;;;4950606;29;20024;-75
2024/03/08 02:18:30;;;;;;;39.28;19.35;;;0.90;99.90;;;;;;4950382;29;20031;-75
2024/03/08 02:20:57;;;;;;;39.47;19.63;;;0.80;99.90;;;;;;4949883;29;20027;-75
2024/03/08 02:23:24;;;;;;;42.83;20.92;;;0.70;99.90;;;;;;4951418;28;20300;-75
2024/03/08 02:25:50;;;;;;;40.40;19.48;;;0.70;99.90;;;;;;4950124;29;20394;-75
2024/03/08 02:28:18;;;;;;;36.92;19.75;;;0.80;99.90;;;;;;4951385;28;20549;-75
2024/03/08 02:30:46;;;;;;;47.75;21.55;;;0.70;99.90;;;;;;4951210;28;20074;-75
2024/03/08 02:33:17;;;;;;;39.78;20.08;;;0.80;99.90;;;;;;4950437;28;20110;-75
2024/03/08 02:35:45;;;;;;;40.05;19.08;;;0.80;99.90;;;;;;4951763;28;20109;-75
2024/03/08 02:38:13;;;;;;;43.30;20.90;;;0.80;99.90;;;;;;4951657;28;20268;-75
2024/03/08 02:40:38;;;;;;;53.20;22.35;;;0.80;99.90;;;;;;4949832;29;20046;-75
2024/03/08 02:43:04;;;;;;;40.95;20.50;;;0.80;99.90;;;;;;4951354;28;20035;-75
2024/03/08 02:45:30;;;;;;;42.88;21.33;;;0.70;99.90;;;;;;4950231;28;20035;-75
2024/03/08 02:47:56;;;;;;;40.67;21.20;;;0.70;99.90;;;;;;4951750;28;20039;-75
2024/03/08 02:50:22;;;;;;;44.85;21.83;;;0.70;99.90;;;;;;4950810;28;20027;-75
2024/03/08 02:52:48;;;;;;;46.65;21.15;;;0.70;99.90;;;;;;4951259;28;20023;-75
2024/03/08 02:55:16;;;;;;;43.63;19.00;;;0.70;99.90;;;;;;4951313;28;20082;-75
2024/03/08 02:57:42;;;;;;;42.88;20.58;;;0.70;99.90;;;;;;4966038;28;20447;-75
2024/03/08 03:00:09;;;;;;;45.03;21.05;;;0.70;99.90;;;;;;4950955;28;20028;-75
2024/03/08 03:02:34;;;;;;;45.42;21.75;;;0.60;99.90;;;;;;4951009;28;20279;-75
2024/03/08 03:05:05;;;;;;;47.13;23.17;;;0.60;99.90;;;;;;4949724;29;20102;-75
2024/03/08 03:07:30;;;;;;;;;;;0.60;99.90;;;;;;4952045;28;20020;-75
2024/03/08 03:09:56;;;;;;;41.30;20.80;;;0.60;99.90;;;;;;4949395;29;19918;-75
2024/03/08 03:12:22;;;;;;;48.47;22.95;;;0.60;99.90;;;;;;4951103;28;20082;-75
2024/03/08 03:14:48;;;;;;;57.88;21.88;;;0.60;99.90;;;;;;4951024;29;20030;-75
2024/03/08 03:17:13;;;;;;;50.33;22.38;;;0.60;99.90;;;;;;4949591;28;20138;-75
2024/03/08 03:19:42;;;;;;;47.45;22.60;;;0.50;99.90;;;;;;4950484;28;20038;-75
2024/03/08 03:22:09;;;;;;;47.30;23.15;;;0.50;99.90;;;;;;4950889;28;20110;-75
2024/03/08 03:24:38;;;;;;;41.78;21.02;;;0.50;99.90;;;;;;4950950;28;20015;-75
2024/03/08 03:27:10;;;;;;;45.08;22.88;;;0.40;99.90;;;;;;4950538;29;20026;-75
2024/03/08 03:29:36;;;;;;;43.25;21.13;;;0.40;99.90;;;;;;4949186;29;20031;-75
2024/03/08 03:32:03;;;;;;;41.78;21.30;;;0.50;99.90;;;;;;4949689;29;20028;-74
2024/03/08 03:34:29;;;;;;;51.38;21.73;;;0.40;99.90;;;;;;4965543;28;20034;-75
2024/03/08 03:36:55;;;;;;;55.80;24.33;;;0.50;99.90;;;;;;4949423;29;20023;-75
2024/03/08 03:39:22;;;;;;;45.60;22.42;;;0.50;99.90;;;;;;4959431;28;20111;-75
2024/03/08 03:41:51;;;;;;;47.97;22.75;;;0.40;99.90;;;;;;4970208;28;20019;-75
2024/03/08 03:44:17;;;;;;;46.05;24.42;;;0.40;99.90;;;;;;4986388;28;20038;-75
2024/03/08 03:46:44;;;;;;;47.92;21.75;;;0.40;99.90;;;;;;4973664;28;20031;-75
2024/03/08 03:49:09;;;;;;;49.45;23.45;;;0.40;99.90;;;;;;4973764;28;20019;-75
2024/03/08 03:51:35;;;;;;;50.28;24.70;;;0.40;99.90;;;;;;4988513;28;20077;-75
2024/03/08 03:54:00;;;;;;;49.58;23.67;;;0.40;99.90;;;;;;4988514;28;20038;-74
2024/03/08 03:56:26;;;;;;;42.20;20.92;;;0.30;99.90;;;;;;4973448;28;20035;-75
2024/03/08 03:58:52;;;;;;;43.17;21.20;;;0.30;99.90;;;;;;4973419;28;20033;-75
2024/03/08 04:01:17;;;;;;;49.50;23.83;;;0.30;99.90;;;;;;4972830;28;20023;-75
2024/03/08 04:03:43;;;;;;;47.05;23.77;;;0.40;99.90;;;;;;4973177;28;20034;-75
2024/03/08 04:06:08;;;;;;;46.95;22.88;;;0.30;99.90;;;;;;4972214;28;20027;-75
2024/03/08 04:08:34;;;;;;;52.05;23.90;;;0.30;99.90;;;;;;4973522;28;20375;-75
2024/03/08 04:11:00;;;;;;;48.70;23.13;;;0.30;99.90;;;;;;4972999;28;20033;-75
2024/03/08 04:13:26;;;;;;;46.83;25.17;;;0.20;99.90;;;;;;4973210;28;20113;-75
2024/03/08 04:15:51;;;;;;;47.65;23.60;;;0.20;99.90;;;;;;4972243;28;20129;-75
2024/03/08 04:18:18;;;;;;;48.20;23.67;;;0.20;99.90;;;;;;4988578;28;20031;-75
2024/03/08 04:20:43;;;;;;;44.30;23.17;;;0.20;99.90;;;;;;4988749;28;20066;-75
2024/03/08 04:23:09;;;;;;;47.88;23.80;;;0.20;99.90;;;;;;4973790;28;20419;-75
2024/03/08 04:25:34;;;;;;;45.08;22.30;;;0.20;99.90;;;;;;4977696;28;20023;-74
2024/03/08 04:28:00;;;;;;;55.72;26.02;;;0.20;99.90;;;;;;4985171;28;20041;-75
2024/03/08 04:30:28;;;;;;;52.30;25.88;;;0.20;99.90;;;;;;4973991;28;20026;-75
2024/03/08 04:32:53;;;;;;;50.45;24.33;;;0.20;99.90;;;;;;4971393;28;20023;-75
2024/03/08 04:35:20;;;;;;;50.88;23.02;;;0.20;99.90;;;;;;4972276;28;20199;-75
2024/03/08 04:37:45;;;;;;;47.50;23.23;;;0.20;99.90;;;;;;4987246;28;20447;-75
2024/03/08 04:40:11;;;;;;;50.88;23.95;;;0.10;99.90;;;;;;4986953;28;20050;-75
2024/03/08 04:42:38;;;;;;;52.17;23.45;;;0.10;99.90;;;;;;4973062;28;20130;-75
2024/03/08 04:45:05;;;;;;;47.42;23.45;;;0.10;99.90;;;;;;4971259;28;20034;-75
2024/03/08 04:47:30;;;;;;;54.42;23.42;;;0.10;99.90;;;;;;4972411;28;20026;-75
2024/03/08 04:49:57;;;;;;;50.25;23.90;;;0.10;99.90;;;;;;4970652;28;20019;-75
2024/03/08 04:52:22;;;;;;;52.28;24.73;;;0.10;99.90;;;;;;4972565;28;20037;-75
2024/03/08 04:54:48;;;;;;;51.10;24.98;;;0.10;99.90;;;;;;4972260;28;20106;-75
2024/03/08 04:57:13;;;;;;;52.10;25.48;;;0.10;99.90;;;;;;4986687;28;20521;-75
2024/03/08 04:59:39;;;;;;;45.83;23.48;;;0.10;99.90;;;;;;4971705;28;20035;-75
2024/03/08 05:02:07;;;;;;;46.50;23.95;;;0.00;99.90;;;;;;4972437;28;20035;-74
2024/03/08 05:04:32;;;;;;;49.75;24.35;;;0.10;99.90;;;;;;4970824;28;20053;-74
2024/03/08 05:07:01;;;;;;;46.28;22.02;;;0.10;99.90;;;;;;4972181;28;20081;-75
2024/03/08 05:09:28;;;;;;;54.20;25.48;;;0.00;99.90;;;;;;4970388;28;20037;-75
2024/03/08 05:11:54;;;;;;;55.45;24.98;;;0.00;99.90;;;;;;4972152;28;20077;-75
2024/03/08 05:14:20;;;;;;;56.97;24.70;;;0.00;99.90;;;;;;4970963;28;20401;-74
2024/03/08 05:16:49;;;;;;;50.45;24.33;;;0.00;99.90;;;;;;4986946;28;20054;-75
2024/03/08 05:19:17;;;;;;;46.47;23.80;;;0.00;99.90;;;;;;4986765;28;20516;-74
2024/03/08 05:21:46;;;;;;;52.33;24.63;;;0.00;99.90;;;;;;4970301;28;20042;-75
2024/03/08 05:24:13;;;;;;;49.97;25.17;;;0.00;99.90;;;;;;4971792;28;20019;-75
2024/03/08 05:26:38;;;;;;;57.40;25.95;;;0.00;99.90;;;;;;4971491;28;20022;-75
2024/03/08 05:29:04;;;;;;;51.70;25.75;;;-0.10;99.90;;;;;;4971391;28;20118;-75
2024/03/08 05:31:36;;;;;;;52.58;24.83;;;-0.10;99.90;;;;;;4970864;28;20027;-75
2024/03/08 05:34:01;;;;;;;48.63;24.98;;;-0.10;99.90;;;;;;4971607;28;20110;-75
2024/03/08 05:36:27;;;;;;;52.65;23.55;;;-0.10;99.90;;;;;;4971303;28;20110;-75
2024/03/08 05:38:52;;;;;;;57.22;25.50;;;-0.10;99.90;;;;;;4971528;28;20042;-74
2024/03/08 05:41:19;;;;;;;53.13;25.70;;;-0.10;99.90;;;;;;4986229;28;20662;-74
2024/03/08 05:43:45;;;;;;;53.35;24.90;;;-0.10;99.90;;;;;;4986196;28;20041;-74
2024/03/08 05:46:11;;;;;;;53.33;24.42;;;-0.10;99.90;;;;;;4970300;28;20022;-75
2024/03/08 05:48:37;;;;;;;58.83;26.63;;;-0.10;99.90;;;;;;4971592;28;20053;-75
2024/03/08 05:51:03;;;;;;;59.67;26.75;;;-0.10;99.90;;;;;;4970974;28;20444;-74
2024/03/08 05:53:32;;;;;;;57.30;25.25;;;-0.10;99.90;;;;;;4971711;28;20050;-75
2024/03/08 05:55:58;;;;;;;52.88;25.83;;;-0.10;99.90;;;;;;4971241;28;20018;-75
2024/03/08 05:58:24;;;;;;;56.00;25.95;;;-0.20;99.90;;;;;;4971227;28;20030;-74
2024/03/08 06:00:50;;;;;;;48.72;24.52;;;-0.20;99.90;;;;;;4969620;28;20470;-74
2024/03/08 06:03:15;;;;;;;58.03;27.27;;;-0.10;99.90;;;;;;4970860;28;20035;-72
2024/03/08 06:05:41;;;;;;;57.60;26.88;;;-0.10;99.90;;;;;;4971106;28;20027;-74
2024/03/08 06:08:07;;;;;;;59.95;28.30;;;-0.20;99.90;;;;;;4969706;28;20027;-74
2024/03/08 06:10:33;;;;;;;56.42;26.63;;;-0.20;99.90;;;;;;4970497;28;20102;-74
2024/03/08 06:12:59;;;;;;;56.85;25.83;;;-0.20;99.90;;;;;;4969838;28;20027;-74
2024/03/08 06:15:25;;;;;;;54.63;26.48;;;-0.10;99.90;;;;;;4986247;28;20085;-74
2024/03/08 06:17:52;;;;;;;54.80;27.10;;;-0.10;99.90;;;;;;4985763;28;20381;-74
2024/03/08 06:20:18;;;;;;;60.45;27.73;;;-0.10;99.90;;;;;;4985065;28;20050;-74
2024/03/08 06:22:44;;;;;;;61.72;28.60;;;-0.10;99.90;;;;;;4970627;28;20482;-74
2024/03/08 06:25:13;;;;;;;58.97;27.05;;;0.00;99.90;;;;;;4969333;28;20027;-74
2024/03/08 06:27:42;;;;;;;56.60;26.60;;;0.00;99.90;;;;;;4970459;28;20515;-74
2024/03/08 06:30:09;;;;;;;50.45;24.10;;;0.00;99.90;;;;;;4970182;28;20058;-74
2024/03/08 06:32:35;;;;;;;52.65;25.27;;;0.00;99.90;;;;;;4970438;28;20026;-74
2024/03/08 06:35:06;;;;;;;57.72;26.80;;;0.00;99.90;;;;;;4970436;28;20037;-74
2024/03/08 06:37:32;;;;;;;58.42;25.13;;;0.00;99.90;;;;;;4970148;28;20022;-74
2024/03/08 06:39:58;;;;;;;56.05;27.85;;;0.10;99.90;;;;;;4970344;28;20043;-75
2024/03/08 06:42:23;;;;;;;56.00;26.27;;;0.10;99.90;;;;;;4985449;28;20065;-74
2024/03/08 06:44:49;;;;;;;47.88;24.25;;;0.10;99.90;;;;;;4970609;28;20401;-74
2024/03/08 06:47:17;;;;;;;55.83;24.80;;;0.10;99.90;;;;;;4971055;28;20023;-75
2024/03/08 06:49:43;;;;;;;52.95;25.40;;;0.10;99.90;;;;;;4969316;28;20393;-74
2024/03/08 06:52:10;;;;;;;54.08;26.92;;;0.20;99.90;;;;;;4985307;28;20031;-74
2024/03/08 06:54:36;;;;;;;65.88;29.25;;;0.20;99.90;;;;;;4985225;28;20121;-75
2024/03/08 06:57:05;;;;;;;56.42;27.67;;;0.20;99.90;;;;;;4970314;28;20422;-75
2024/03/08 06:59:31;;;;;;;53.17;25.63;;;0.30;99.90;;;;;;4968671;28;20113;-76
2024/03/08 07:01:56;;;;;;;54.90;26.67;;;0.30;99.90;;;;;;4968993;28;20254;-74
2024/03/08 07:04:26;;;;;;;54.17;26.58;;;0.40;99.90;;;;;;4970344;28;20482;-74
2024/03/08 07:06:51;;;;;;;55.15;26.70;;;0.40;99.90;;;;;;4970208;28;20046;-74
2024/03/08 07:09:17;;;;;;;50.78;25.40;;;0.50;99.90;;;;;;4984909;28;20054;-74
2024/03/08 07:11:43;;;;;;;52.70;25.88;;;0.50;99.90;;;;;;4969896;28;20405;-74
2024/03/08 07:14:08;;;;;;;61.35;28.27;;;0.50;99.90;;;;;;4984916;28;20526;-74
2024/03/08 07:16:35;;;;;;;51.50;26.85;;;0.60;99.90;;;;;;4970152;28;20030;-74
2024/03/08 07:19:01;;;;;;;46.78;24.27;;;0.60;99.90;;;;;;4969833;28;20114;-74
2024/03/08 07:21:27;;;;;;;46.72;25.10;;;0.70;99.90;;;;;;4973507;28;20069;-74
2024/03/08 07:26:27;;;;;;;50.65;26.45;;;0.80;99.90;;;;;;4974600;28;20042;-74
2024/03/08 07:28:56;;;;;;;49.30;26.77;;;0.90;99.90;;;;;;4989202;28;20023;-74
2024/03/08 07:33:50;;;;;;;56.13;27.50;;;1.00;99.90;;;;;;4973927;28;20122;-74
2024/03/08 07:36:16;;;;;;;52.45;26.73;;;1.10;99.90;;;;;;4974242;28;20109;-74
2024/03/08 07:38:42;;;;;;;46.10;24.95;;;1.10;99.90;;;;;;4974314;28;20493;-76
2024/03/08 07:41:07;;;;;;;51.33;25.42;;;1.20;99.90;;;;;;4973903;28;20041;-77
2024/03/08 07:43:33;;;;;;;49.65;27.70;;;1.30;99.90;;;;;;4972780;28;20106;-73
2024/03/08 07:45:58;;;;;;;51.67;26.85;;;1.40;99.90;;;;;;4988529;28;20033;-74
2024/03/08 07:48:24;;;;;;;53.80;26.95;;;1.50;99.90;;;;;;4988372;28;20110;-74
2024/03/08 07:50:49;;;;;;;54.70;27.13;;;1.60;99.90;;;;;;4972985;28;20045;-74
2024/03/08 07:53:15;;;;;;;54.20;26.20;;;1.60;99.90;;;;;;4973569;28;20178;-73
2024/03/08 07:55:42;;;;;;;56.22;27.02;;;1.70;99.90;;;;;;4973301;28;20030;-73
2024/03/08 07:58:10;;;;;;;50.50;26.02;;;1.80;99.90;;;;;;4988031;28;20035;-74
2024/03/08 08:00:36;;;;;;;49.97;25.85;;;1.90;99.90;;;;;;4987563;28;20490;-74
2024/03/08 08:03:02;;;;;;;55.15;27.00;;;2.00;99.90;;;;;;4973433;28;20142;-74
2024/03/08 08:05:28;;;;;;;54.13;27.25;;;2.00;99.90;;;;;;4973262;28;20442;-74
2024/03/08 08:07:53;;;;;;;48.55;28.02;;;2.10;99.90;;;;;;4973507;28;20106;-74
2024/03/08 08:10:21;;;;;;;51.75;27.05;;;2.20;99.90;;;;;;4971225;28;20023;-74
2024/03/08 08:12:48;;;;;;;53.78;28.33;;;2.40;99.90;;;;;;4987637;28;20500;-74
2024/03/08 08:15:14;;;;;;;55.38;28.48;;;2.40;99.90;;;;;;4971662;28;20085;-77
2024/03/08 08:17:43;;;;;;;48.47;27.77;;;2.50;99.90;;;;;;4971540;28;20413;-75
2024/03/08 08:20:11;;;;;;;54.72;29.35;;;2.60;99.90;;;;;;4972539;28;20422;-74
2024/03/08 08:22:40;;;;;;;53.08;28.77;;;2.70;99.90;;;;;;4973031;28;20031;-74
2024/03/08 08:25:07;;;;;;;52.17;28.98;;;2.80;99.90;;;;;;4987545;28;20085;-74
2024/03/08 08:27:33;;;;;;;53.00;28.35;;;2.90;99.90;;;;;;4972737;28;20042;-74
2024/03/08 08:29:58;;;;;;;46.95;26.70;;;2.90;99.90;;;;;;4972097;28;20101;-75
2024/03/08 08:32:24;;;;;;;51.17;28.40;;;3.00;99.90;;;;;;4972677;28;20110;-74
2024/03/08 08:34:50;;;;;;;52.22;28.52;;;3.20;99.90;;;;;;4987549;28;20035;-74
2024/03/08 08:37:16;;;;;;;47.50;27.73;;;3.30;99.90;;;;;;4972650;28;20027;-75
2024/03/08 08:39:42;;;;;;;53.92;29.58;;;3.50;99.90;;;;;;4972065;28;20034;-75
2024/03/08 08:42:09;;;;;;;47.20;27.98;;;3.60;99.90;;;;;;4972831;28;20065;-75
2024/03/08 08:44:37;;;;;;;51.95;28.92;;;3.70;99.90;;;;;;4972503;28;20025;-75
2024/03/08 08:47:03;;;;;;;50.40;28.55;;;3.80;99.90;;;;;;4972747;28;20054;-75
2024/03/08 08:49:30;;;;;;;49.88;29.17;;;4.00;99.90;;;;;;4972117;28;20027;-74
2024/03/08 08:51:58;;;;;;;48.90;29.05;;;4.20;99.90;;;;;;4972740;28;20029;-76
2024/03/08 08:54:24;;;;;;;50.05;28.75;;;4.40;99.90;;;;;;4987697;28;20081;-75
2024/03/08 08:56:50;;;;;;;43.67;26.90;;;4.60;99.90;;;;;;4972535;28;20102;-75
2024/03/08 08:59:19;;;;;;;43.83;26.33;;;5.30;99.90;;;;;;4970606;28;20471;-75
2024/03/08 09:01:47;;;;;;;41.58;24.88;;;6.50;99.90;;;;;;4971689;28;20364;-75
2024/03/08 09:04:12;;;;;;;38.63;25.23;;;8.30;99.90;;;;;;4970784;28;20235;-75
2024/03/08 09:06:41;;;;;;;36.88;24.58;;;9.70;97.00;;;;;;4972128;28;20443;-75
2024/03/08 09:09:09;;;;;;;36.08;25.05;;;11.30;94.00;;;;;;4970555;28;20023;-76
2024/03/08 09:11:34;;;;;;;32.00;22.25;;;12.20;89.80;;;;;;4986720;28;20073;-76
2024/03/08 09:14:01;;;;;;;35.33;25.00;;;12.90;87.80;;;;;;4972251;28;20113;-76
2024/03/08 09:16:27;;;;;;;29.80;22.67;;;13.80;82.30;;;;;;4972719;28;20497;-76
2024/03/08 09:18:52;;;;;;;37.22;25.80;;;14.50;80.40;;;;;;4987034;28;20058;-76
2024/03/08 09:21:18;;;;;;;37.40;25.92;;;14.90;76.50;;;;;;4986539;28;20069;-75
2024/03/08 09:23:44;;;;;;;32.47;24.48;;;15.30;73.50;;;;;;4970620;28;20494;-76
2024/03/08 09:26:12;;;;;;;29.70;23.73;;;15.70;73.20;;;;;;4971381;28;20413;-76
2024/03/08 09:28:38;;;;;;;33.05;23.75;;;16.40;72.40;;;;;;4971551;28;20073;-76
2024/03/08 09:31:05;;;;;;;31.23;23.63;;;16.60;69.70;;;;;;4971392;28;20397;-76
2024/03/08 09:33:31;;;;;;;28.92;22.27;;;16.90;70.00;;;;;;4971784;28;20034;-76
2024/03/08 09:36:03;;;;;;;31.27;22.85;;;17.50;69.20;;;;;;4970373;28;20398;-78
2024/03/08 09:38:48;;;;;;;31.50;23.55;;;17.40;66.70;;;;;;4943812;28;20043;-77
2024/03/08 09:41:14;;;;;;;31.08;22.90;;;17.50;66.70;;;;;;4969498;28;20033;-77
2024/03/08 09:43:40;;;;;;;30.33;24.65;;;18.30;64.40;;;;;;4970143;28;20027;-77
2024/03/08 09:46:07;;;;;;;28.55;23.67;;;18.30;64.60;;;;;;4986486;28;20415;-77
2024/03/08 09:48:34;;;;;;;28.25;23.27;;;18.20;64.10;;;;;;4971356;28;20019;-77
2024/03/08 09:51:00;;;;;;;29.33;22.92;;;18.90;64.30;;;;;;4971489;28;20533;-77
2024/03/08 09:53:28;;;;;;;33.95;26.08;;;19.30;63.90;;;;;;4971162;28;20034;-77
2024/03/08 09:55:54;;;;;;;29.35;24.67;;;19.40;62.30;;;;;;4971445;28;20023;-84
2024/03/08 10:00:58;;;;;;;29.20;23.42;;;19.30;61.10;;;;;;4973535;28;20429;-86
2024/03/08 10:03:27;;;;;;;33.70;25.08;;;19.70;60.60;;;;;;4973477;28;20027;-86
2024/03/08 10:05:53;;;;;;;29.98;23.33;;;19.40;59.70;;;;;;4972631;28;20023;-82
2024/03/08 10:08:20;;;;;;;33.28;25.25;;;19.60;59.30;;;;;;4973263;28;20387;-84
2024/03/08 10:10:46;;;;;;;30.08;24.23;;;20.20;58.20;;;;;;4971824;28;20030;-82
2024/03/08 10:13:13;;;;;;;32.47;24.60;;;20.40;60.70;;;;;;4973033;28;20023;-84
2024/03/08 10:15:40;;;;;;;30.60;25.20;;;20.20;58.60;;;;;;4972710;28;20027;-84
2024/03/08 10:18:06;;;;;;;29.35;23.23;;;19.90;59.50;;;;;;4970884;28;20431;-84
2024/03/08 10:20:33;;;;;;;29.30;24.05;;;20.20;58.50;;;;;;4970267;28;20054;-86
2024/03/08 10:23:04;;;;;;;28.63;22.48;;;20.50;58.70;;;;;;4970770;28;20031;-80
2024/03/08 10:25:31;;;;;;;29.88;24.10;;;20.90;57.20;;;;;;4971779;28;20019;-81
2024/03/08 10:28:04;;;;;;;29.25;23.88;;;20.90;55.70;;;;;;4971673;28;20510;-84
2024/03/08 10:30:30;;;;;;;25.80;22.10;;;21.00;56.80;;;;;;4970562;28;20097;-83
2024/03/08 10:33:09;;;;;;;30.17;22.95;;;21.20;56.30;;;;;;4970833;28;20572;-81
2024/03/08 10:35:34;;;;;;;27.70;23.67;;;21.40;56.40;;;;;;4971630;28;20703;-80
2024/03/08 10:38:06;;;;;;;29.27;22.98;;;21.00;55.50;;;;;;4987491;28;20035;-85
2024/03/08 10:40:32;;;;;;;26.75;22.92;;;20.70;56.80;;;;;;4987451;28;20027;-85
2024/03/08 10:42:59;;;;;;;24.42;20.27;;;20.30;55.90;;;;;;4971877;28;20037;-86
2024/03/08 10:45:34;;;;;;;29.40;23.35;;;20.10;57.40;;;;;;4988178;28;20034;-87
2024/03/08 10:48:20;;;;;;;27.80;22.33;;;20.10;56.90;;;;;;4971767;28;20494;-87
2024/03/08 10:50:46;;;;;;;31.67;24.98;;;20.60;56.10;;;;;;4972617;28;20030;-88
2024/03/08 10:53:14;;;;;;;30.33;23.63;;;20.20;54.50;;;;;;4971813;28;20149;-87
2024/03/08 10:55:46;;;;;;;25.15;20.60;;;20.50;56.60;;;;;;4977282;28;20026;-86
2024/03/08 10:58:11;;;;;;;25.88;21.38;;;21.40;55.30;;;;;;4978532;28;20086;-90
2024/03/08 11:00:37;;;;;;;32.47;25.20;;;21.80;54.40;;;;;;4988380;28;20023;-85
2024/03/08 11:03:04;;;;;;;28.63;21.73;;;20.80;52.90;;;;;;4976042;28;20022;-77
2024/03/08 11:05:40;;;;;;;25.65;22.13;;;20.70;54.00;;;;;;4974927;28;20485;-83
2024/03/08 11:08:20;;;;;;;27.23;22.23;;;20.90;55.10;;;;;;4976190;28;20043;-84
2024/03/08 11:10:55;;;;;;;29.15;23.02;;;21.20;53.70;;;;;;4990597;28;20019;-81
2024/03/08 11:13:36;;;;;;;27.73;21.65;;;20.70;55.30;;;;;;4976062;28;20069;-80
2024/03/08 11:16:07;;;;;;;29.83;23.80;;;20.20;54.70;;;;;;4974642;28;20019;-78
2024/03/08 11:18:34;;;;;;;28.75;22.77;;;20.60;53.40;;;;;;4975910;28;20478;-78
2024/03/08 11:21:05;;;;;;;25.85;20.05;;;20.60;54.60;;;;;;4975195;28;20109;-78
2024/03/08 11:23:31;;;;;;;29.88;23.30;;;21.20;55.40;;;;;;4975817;28;20031;-79
2024/03/08 11:25:56;;;;;;;30.33;22.88;;;20.40;54.50;;;;;;4990829;28;20033;-79
2024/03/08 11:28:26;;;;;;;28.80;21.52;;;20.50;55.50;;;;;;4974755;28;20366;-80
2024/03/08 11:31:33;;;;;;;26.05;20.50;;;20.40;55.80;;;;;;4973909;28;20468;-78
2024/03/08 11:34:01;;;;;;;26.35;21.33;;;20.80;54.00;;;;;;4977575;28;20046;-81
2024/03/08 11:36:26;;;;;;;26.83;22.52;;;20.90;55.30;;;;;;4974023;28;20078;-82
2024/03/08 11:38:53;;;;;;;25.13;20.80;;;21.10;56.40;;;;;;4990479;28;20133;-82
2024/03/08 11:41:22;;;;;;;26.25;20.92;;;21.60;54.10;;;;;;4974539;28;20027;-83
2024/03/08 11:43:48;;;;;;;28.75;21.33;;;22.30;53.20;;;;;;4990717;28;20030;-83
2024/03/08 11:46:15;;;;;;;26.88;21.58;;;21.80;54.00;;;;;;4974576;28;20023;-80
2024/03/08 11:48:42;;;;;;;23.77;18.13;;;22.20;54.80;;;;;;4990249;28;20019;-79
2024/03/08 11:51:11;;;;;;;25.60;20.83;;;21.90;53.50;;;;;;4975042;28;20058;-85
2024/03/08 11:53:37;;;;;;;26.60;20.48;;;21.50;51.20;;;;;;4975506;28;20015;-87
2024/03/08 11:56:14;;;;;;;26.05;20.08;;;21.30;52.20;;;;;;4978003;28;20038;-87
2024/03/08 11:58:40;;;;;;;24.30;18.73;;;21.10;51.00;;;;;;4982636;28;20547;-88
2024/03/08 12:01:16;;;;;;;19.50;16.65;;;21.30;51.50;;;;;;4977385;28;20121;-80
2024/03/08 12:03:54;;;;;;;23.63;18.98;;;22.20;52.80;;;;;;4974376;28;20057;-81
2024/03/08 12:06:20;;;;;;;24.25;19.40;;;22.10;50.40;;;;;;4959865;28;20458;-80
2024/03/08 12:08:49;;;;;;;20.70;18.15;;;21.10;52.50;;;;;;4975667;28;20117;-78
2024/03/08 12:11:14;;;;;;;23.20;18.02;;;21.30;51.90;;;;;;4975227;28;20046;-80
2024/03/08 12:13:41;;;;;;;21.23;17.17;;;21.40;52.10;;;;;;4974635;28;20458;-83
2024/03/08 12:16:09;;;;;;;20.55;16.70;;;21.50;51.30;;;;;;4978299;28;20459;-84
2024/03/08 12:18:37;;;;;;;23.15;17.20;;;21.30;51.60;;;;;;4978727;28;20073;-84
2024/03/08 12:21:07;;;;;;;23.90;19.20;;;21.40;53.30;;;;;;4978626;28;20402;-84
2024/03/08 12:23:33;;;;;;;;;;;21.30;53.60;;;;;;4993524;28;20031;-84
2024/03/08 12:26:25;;;;;;;21.35;17.77;;;20.40;51.50;;;;;;4976240;28;19906;-83
2024/03/08 12:28:52;;;;;;;24.58;18.90;;;19.30;55.20;;;;;;4975485;28;20022;-83
2024/03/08 12:31:20;;;;;;;24.33;19.85;;;18.90;55.50;;;;;;4975671;28;20027;-83
2024/03/08 12:33:50;;;;;;;27.30;21.08;;;19.20;56.00;;;;;;4991421;28;20121;-83
2024/03/08 12:36:16;;;;;;;27.65;19.85;;;19.20;55.80;;;;;;4974783;28;20482;-84
2024/03/08 12:38:47;;;;;;;26.85;20.35;;;18.70;57.10;;;;;;4974032;28;20050;-83
2024/03/08 12:41:14;;;;;;;28.38;20.13;;;18.50;58.10;;;;;;4974854;28;20030;-83